createdAt,value
2022-11-15T00:00:05.728Z,27.82
2022-11-15T00:01:07.545Z,26.62
2022-11-15T00:02:09.414Z,26.16
2022-11-15T00:03:11.317Z,25.97
2022-11-15T00:04:13.124Z,25.89
2022-11-15T00:05:14.929Z,24.85
2022-11-15T00:06:17.473Z,25.45
2022-11-15T00:07:48.424Z,25.09
2022-11-15T00:08:22.963Z,26.87
2022-11-15T00:09:24.784Z,25.05
2022-11-15T00:10:26.711Z,24.79
2022-11-15T00:11:28.529Z,23.29
2022-11-15T00:12:30.341Z,23.16
2022-11-15T00:13:32.659Z,22.80
2022-11-15T00:14:34.846Z,23.39
2022-11-15T00:15:36.651Z,23.29
2022-11-15T00:16:38.675Z,22.87
2022-11-15T00:17:40.508Z,22.73
2022-11-15T00:18:46.391Z,23.05
2022-11-15T00:19:45.988Z,22.77
2022-11-15T00:20:47.805Z,23.04
2022-11-15T00:21:49.625Z,22.19
2022-11-15T00:22:51.429Z,24.21
2022-11-15T00:23:53.279Z,22.22
2022-11-15T00:24:55.099Z,22.51
2022-11-15T00:25:56.914Z,23.33
2022-11-15T00:26:58.817Z,23.83
2022-11-15T00:28:00.638Z,23.41
2022-11-15T00:29:02.541Z,24.84
2022-11-15T00:30:04.438Z,23.81
2022-11-15T00:31:06.262Z,21.63
2022-11-15T00:32:08.092Z,22.42
2022-11-15T00:33:09.903Z,23.14
2022-11-15T00:34:11.752Z,23.90
2022-11-15T00:35:13.576Z,22.48
2022-11-15T00:36:15.794Z,23.15
2022-11-15T00:37:17.581Z,24.49
2022-11-15T00:38:19.403Z,26.13
2022-11-15T00:39:21.268Z,24.65
2022-11-15T00:40:23.183Z,24.09
2022-11-15T00:41:24.993Z,24.58
2022-11-15T00:42:26.813Z,24.59
2022-11-15T00:43:28.983Z,25.93
2022-11-15T00:44:31.255Z,26.02
2022-11-15T00:45:33.083Z,25.25
2022-11-15T00:46:34.980Z,25.22
2022-11-15T00:47:36.798Z,24.44
2022-11-15T00:48:38.612Z,25.29
2022-11-15T00:49:40.464Z,25.59
2022-11-15T00:50:42.379Z,25.11
2022-11-15T00:51:44.195Z,24.53
2022-11-15T00:52:46.027Z,26.57
2022-11-15T00:53:47.861Z,25.94
2022-11-15T00:54:49.766Z,26.63
2022-11-15T00:55:51.627Z,26.36
2022-11-15T00:56:53.493Z,27.99
2022-11-15T00:57:55.305Z,26.80
2022-11-15T00:58:57.168Z,28.16
2022-11-15T00:59:59.053Z,28.69
2022-11-15T01:01:00.999Z,27.17
2022-11-15T01:02:02.937Z,27.31
2022-11-15T01:03:04.816Z,27.96
2022-11-15T01:04:06.661Z,27.35
2022-11-15T01:05:08.508Z,27.55
2022-11-15T01:06:10.528Z,26.90
2022-11-15T01:07:12.385Z,26.94
2022-11-15T01:08:14.217Z,25.93
2022-11-15T01:09:16.027Z,28.23
2022-11-15T01:10:17.941Z,26.00
2022-11-15T01:11:19.771Z,26.70
2022-11-15T01:12:21.609Z,26.01
2022-11-15T01:13:23.442Z,26.41
2022-11-15T01:14:25.818Z,27.15
2022-11-15T01:15:27.765Z,26.69
2022-11-15T01:16:29.746Z,28.02
2022-11-15T01:17:31.561Z,26.23
2022-11-15T01:18:33.358Z,26.57
2022-11-15T01:19:35.232Z,26.91
2022-11-15T01:20:37.219Z,25.97
2022-11-15T01:21:39.029Z,26.43
2022-11-15T01:22:40.859Z,25.53
2022-11-15T01:23:42.701Z,25.75
2022-11-15T01:24:44.535Z,28.09
2022-11-15T01:25:46.426Z,28.83
2022-11-15T01:26:48.263Z,28.37
2022-11-15T01:27:50.138Z,28.43
2022-11-15T01:28:51.937Z,29.06
2022-11-15T01:29:53.758Z,26.58
2022-11-15T01:30:55.857Z,26.29
2022-11-15T01:31:57.707Z,26.06
2022-11-15T01:32:59.511Z,24.21
2022-11-15T01:34:01.319Z,23.76
2022-11-15T01:35:03.199Z,23.17
2022-11-15T01:36:05.186Z,23.39
2022-11-15T01:37:07.074Z,24.71
2022-11-15T01:38:08.892Z,25.85
2022-11-15T01:39:10.760Z,25.72
2022-11-15T01:40:13.160Z,27.51
2022-11-15T01:41:15.012Z,26.80
2022-11-15T01:42:16.827Z,26.17
2022-11-15T01:43:18.649Z,26.16
2022-11-15T01:44:20.518Z,25.46
2022-11-15T01:45:22.365Z,28.43
2022-11-15T01:46:24.419Z,27.31
2022-11-15T01:47:26.310Z,26.80
2022-11-15T01:48:28.136Z,24.55
2022-11-15T01:49:30.421Z,24.65
2022-11-15T01:50:32.389Z,24.34
2022-11-15T01:51:34.236Z,25.05
2022-11-15T01:52:36.104Z,24.51
2022-11-15T01:53:37.960Z,25.11
2022-11-15T01:54:39.765Z,24.83
2022-11-15T01:55:41.637Z,25.27
2022-11-15T01:56:43.732Z,24.31
2022-11-15T01:57:45.552Z,23.56
2022-11-15T01:58:47.369Z,25.39
2022-11-15T01:59:49.242Z,25.06
2022-11-15T02:00:51.364Z,24.07
2022-11-15T02:01:53.381Z,24.68
2022-11-15T02:02:55.250Z,25.03
2022-11-15T02:03:57.079Z,24.27
2022-11-15T02:04:58.891Z,25.16
2022-11-15T02:06:00.732Z,28.66
2022-11-15T02:07:02.666Z,36.81
2022-11-15T02:08:04.497Z,38.35
2022-11-15T02:09:06.348Z,38.49
2022-11-15T02:10:09.137Z,41.51
2022-11-15T02:11:10.990Z,37.92
2022-11-15T02:12:12.880Z,37.62
2022-11-15T02:13:14.738Z,44.75
2022-11-15T02:14:16.586Z,49.18
2022-11-15T02:15:18.423Z,43.15
2022-11-15T02:16:20.329Z,40.41
2022-11-15T02:17:22.242Z,32.85
2022-11-15T02:18:24.065Z,33.66
2022-11-15T02:19:25.892Z,31.45
2022-11-15T02:20:27.971Z,30.03
2022-11-15T02:21:29.816Z,28.99
2022-11-15T02:22:31.727Z,30.23
2022-11-15T02:23:36.366Z,25.94
2022-11-15T02:24:38.254Z,27.07
2022-11-15T02:25:40.068Z,27.59
2022-11-15T02:26:41.966Z,26.54
2022-11-15T02:27:43.864Z,25.37
2022-11-15T02:28:45.695Z,27.08
2022-11-15T02:29:47.509Z,25.56
2022-11-15T02:30:49.481Z,26.46
2022-11-15T02:31:51.280Z,24.79
2022-11-15T02:32:53.370Z,25.91
2022-11-15T02:33:55.162Z,23.20
2022-11-15T02:34:56.967Z,23.52
2022-11-15T02:35:58.823Z,22.50
2022-11-15T02:37:00.736Z,22.38
2022-11-15T02:38:02.656Z,23.55
2022-11-15T02:39:04.466Z,22.80
2022-11-15T02:40:06.547Z,24.75
2022-11-15T02:41:08.355Z,22.19
2022-11-15T02:42:10.224Z,22.57
2022-11-15T02:43:12.075Z,22.09
2022-11-15T02:44:13.907Z,23.23
2022-11-15T02:45:15.750Z,23.77
2022-11-15T02:46:17.635Z,23.16
2022-11-15T02:47:19.462Z,21.27
2022-11-15T02:48:21.591Z,22.87
2022-11-15T02:49:23.435Z,22.31
2022-11-15T02:50:25.428Z,22.07
2022-11-15T02:51:27.285Z,21.11
2022-11-15T02:52:29.096Z,21.27
2022-11-15T02:53:31.380Z,21.76
2022-11-15T02:54:33.432Z,21.29
2022-11-15T02:55:35.248Z,21.37
2022-11-15T02:56:37.158Z,20.63
2022-11-15T02:57:39.021Z,21.41
2022-11-15T02:58:40.857Z,22.22
2022-11-15T02:59:42.678Z,22.47
2022-11-15T03:00:44.677Z,20.72
2022-11-15T03:01:46.433Z,20.66
2022-11-15T03:02:48.269Z,20.58
2022-11-15T03:03:50.395Z,20.91
2022-11-15T03:04:52.256Z,21.54
2022-11-15T03:05:54.108Z,20.38
2022-11-15T03:06:56.083Z,21.02
2022-11-15T03:08:02.087Z,21.94
2022-11-15T03:09:01.689Z,22.73
2022-11-15T03:10:03.621Z,22.81
2022-11-15T03:11:05.438Z,22.75
2022-11-15T03:12:07.313Z,23.31
2022-11-15T03:13:09.119Z,22.40
2022-11-15T03:14:11.012Z,21.21
2022-11-15T03:15:12.838Z,21.40
2022-11-15T03:16:14.889Z,22.51
2022-11-15T03:17:16.676Z,20.79
2022-11-15T03:18:18.502Z,21.08
2022-11-15T03:19:21.707Z,20.01
2022-11-15T03:20:24.085Z,21.82
2022-11-15T03:21:25.938Z,23.63
2022-11-15T03:22:27.793Z,22.50
2022-11-15T03:23:29.838Z,21.03
2022-11-15T03:24:32.173Z,20.41
2022-11-15T03:25:33.993Z,20.53
2022-11-15T03:26:35.993Z,20.43
2022-11-15T03:27:37.869Z,20.65
2022-11-15T03:28:39.736Z,19.45
2022-11-15T03:29:41.633Z,20.99
2022-11-15T03:30:43.710Z,19.59
2022-11-15T03:31:49.722Z,21.11
2022-11-15T03:32:49.233Z,20.97
2022-11-15T03:33:51.052Z,21.01
2022-11-15T03:34:53.085Z,21.58
2022-11-15T03:35:54.888Z,22.22
2022-11-15T03:36:56.737Z,21.19
2022-11-15T03:37:58.623Z,21.58
2022-11-15T03:39:00.487Z,21.57
2022-11-15T03:40:02.417Z,21.31
2022-11-15T03:42:25.487Z,20.33
2022-11-15T03:43:27.320Z,18.09
2022-11-15T03:44:29.183Z,17.91
2022-11-15T03:45:31.068Z,16.43
2022-11-15T03:46:33.010Z,15.69
2022-11-15T03:47:34.882Z,16.12
2022-11-15T03:48:36.681Z,14.69
2022-11-15T03:49:38.542Z,14.89
2022-11-15T03:50:40.507Z,13.74
2022-11-15T03:51:42.321Z,14.99
2022-11-15T03:52:44.189Z,14.01
2022-11-15T03:53:46.047Z,16.27
2022-11-15T03:54:47.850Z,17.17
2022-11-15T03:55:49.751Z,17.89
2022-11-15T03:56:51.977Z,18.01
2022-11-15T03:57:53.830Z,16.82
2022-11-15T03:58:55.671Z,15.62
2022-11-15T03:59:57.487Z,15.96
2022-11-15T04:00:59.534Z,16.59
2022-11-15T04:02:01.430Z,16.19
2022-11-15T04:03:03.244Z,16.67
2022-11-15T04:04:05.104Z,15.85
2022-11-15T04:05:06.963Z,16.83
2022-11-15T04:06:09.856Z,16.04
2022-11-15T04:07:11.767Z,15.88
2022-11-15T04:08:14.199Z,17.09
2022-11-15T04:09:16.042Z,16.41
2022-11-15T04:10:17.863Z,17.50
2022-11-15T04:11:19.782Z,17.15
2022-11-15T04:12:21.582Z,18.92
2022-11-15T04:13:23.421Z,20.17
2022-11-15T04:14:25.276Z,21.18
2022-11-15T04:15:27.074Z,20.99
2022-11-15T04:16:29.110Z,21.71
2022-11-15T04:17:30.911Z,21.05
2022-11-15T04:18:32.735Z,18.61
2022-11-15T04:19:34.547Z,19.67
2022-11-15T04:20:36.493Z,20.45
2022-11-15T04:21:38.396Z,20.84
2022-11-15T04:22:40.213Z,20.01
2022-11-15T04:23:42.247Z,27.79
2022-11-15T04:24:44.296Z,22.26
2022-11-15T04:25:46.154Z,18.19
2022-11-15T04:26:48.208Z,18.83
2022-11-15T04:27:50.075Z,17.06
2022-11-15T04:28:51.913Z,16.65
2022-11-15T04:29:53.786Z,17.71
2022-11-15T04:30:55.762Z,19.64
2022-11-15T04:31:57.630Z,20.75
2022-11-15T04:32:59.494Z,18.99
2022-11-15T04:34:01.315Z,19.77
2022-11-15T04:35:03.188Z,20.27
2022-11-15T04:36:05.127Z,20.16
2022-11-15T04:37:07.941Z,18.61
2022-11-15T04:38:09.790Z,18.21
2022-11-15T04:39:11.582Z,18.83
2022-11-15T04:40:13.704Z,21.60
2022-11-15T04:41:15.494Z,20.87
2022-11-15T04:42:17.340Z,21.90
2022-11-15T04:43:19.161Z,22.39
2022-11-15T04:44:20.972Z,21.12
2022-11-15T04:45:22.774Z,18.61
2022-11-15T04:46:24.573Z,18.91
2022-11-15T04:47:26.431Z,18.53
2022-11-15T04:48:28.250Z,19.00
2022-11-15T04:49:30.062Z,19.09
2022-11-15T04:50:31.966Z,19.44
2022-11-15T04:51:33.789Z,16.65
2022-11-15T04:52:35.652Z,15.09
2022-11-15T04:53:37.453Z,16.02
2022-11-15T04:54:39.265Z,14.81
2022-11-15T04:55:41.047Z,15.49
2022-11-15T04:56:42.961Z,15.35
2022-11-15T04:57:44.812Z,15.24
2022-11-15T04:58:46.629Z,14.81
2022-11-15T04:59:48.422Z,14.42
2022-11-15T05:00:50.374Z,15.67
2022-11-15T05:01:52.247Z,13.89
2022-11-15T05:02:54.097Z,15.88
2022-11-15T05:03:55.900Z,13.71
2022-11-15T05:04:57.709Z,13.86
2022-11-15T05:05:59.502Z,14.67
2022-11-15T05:07:01.484Z,14.59
2022-11-15T05:08:03.383Z,15.55
2022-11-15T05:09:05.189Z,17.18
2022-11-15T05:10:07.394Z,16.56
2022-11-15T05:11:09.206Z,15.44
2022-11-15T05:12:11.001Z,16.33
2022-11-15T05:13:12.846Z,15.15
2022-11-15T05:14:14.669Z,15.11
2022-11-15T05:15:16.469Z,15.20
2022-11-15T05:16:18.564Z,14.93
2022-11-15T05:17:20.370Z,16.27
2022-11-15T05:18:23.745Z,17.36
2022-11-15T05:19:25.885Z,16.91
2022-11-15T05:20:27.682Z,16.30
2022-11-15T05:21:29.481Z,18.26
2022-11-15T05:22:31.307Z,17.29
2022-11-15T05:23:33.929Z,16.81
2022-11-15T05:24:36.150Z,20.16
2022-11-15T05:25:37.949Z,21.99
2022-11-15T05:26:39.865Z,20.71
2022-11-15T05:27:41.648Z,21.90
2022-11-15T05:28:43.401Z,24.95
2022-11-15T05:29:45.211Z,29.02
2022-11-15T05:30:47.118Z,28.82
2022-11-15T05:31:48.925Z,29.13
2022-11-15T05:32:50.732Z,30.21
2022-11-15T05:33:52.584Z,30.45
2022-11-15T05:34:54.374Z,28.43
2022-11-15T05:35:56.193Z,25.35
2022-11-15T05:36:58.129Z,25.89
2022-11-15T05:37:59.926Z,23.34
2022-11-15T05:39:01.791Z,19.62
2022-11-15T05:40:03.700Z,19.35
2022-11-15T05:41:05.506Z,19.21
2022-11-15T05:42:07.293Z,19.42
2022-11-15T05:43:09.111Z,18.33
2022-11-15T05:44:10.954Z,18.09
2022-11-15T05:45:12.782Z,17.25
2022-11-15T05:46:15.810Z,17.39
2022-11-15T05:47:17.610Z,17.94
2022-11-15T05:48:19.413Z,16.23
2022-11-15T05:49:21.291Z,15.47
2022-11-15T05:50:23.212Z,16.52
2022-11-15T05:51:25.019Z,16.00
2022-11-15T05:52:26.814Z,15.14
2022-11-15T05:53:28.781Z,15.19
2022-11-15T05:54:30.777Z,14.92
2022-11-15T05:55:32.584Z,14.94
2022-11-15T05:56:34.705Z,15.11
2022-11-15T05:57:36.520Z,15.00
2022-11-15T05:58:38.326Z,15.51
2022-11-15T05:59:40.188Z,15.07
2022-11-15T06:00:42.222Z,15.29
2022-11-15T06:01:44.084Z,13.75
2022-11-15T06:02:45.912Z,14.91
2022-11-15T06:03:47.744Z,14.43
2022-11-15T06:04:49.580Z,15.61
2022-11-15T06:05:51.368Z,15.14
2022-11-15T06:06:53.212Z,15.02
2022-11-15T06:07:55.108Z,16.19
2022-11-15T06:08:56.902Z,15.89
2022-11-15T06:09:58.800Z,16.04
2022-11-15T06:11:00.713Z,16.37
2022-11-15T06:12:02.513Z,17.67
2022-11-15T06:13:04.340Z,17.13
2022-11-15T06:14:06.167Z,17.22
2022-11-15T06:15:08.052Z,18.18
2022-11-15T06:16:10.792Z,18.58
2022-11-15T06:17:12.646Z,18.29
2022-11-15T06:18:14.461Z,19.17
2022-11-15T06:19:16.263Z,18.51
2022-11-15T06:20:18.230Z,19.19
2022-11-15T06:21:20.068Z,18.84
2022-11-15T06:22:21.865Z,18.64
2022-11-15T06:23:26.127Z,19.06
2022-11-15T06:24:27.362Z,18.31
2022-11-15T06:25:29.235Z,19.29
2022-11-15T06:26:31.165Z,18.41
2022-11-15T06:27:32.995Z,19.43
2022-11-15T06:28:34.811Z,18.65
2022-11-15T06:29:36.602Z,19.87
2022-11-15T06:30:38.607Z,18.24
2022-11-15T06:31:40.436Z,19.30
2022-11-15T06:32:42.245Z,17.94
2022-11-15T06:33:44.166Z,17.76
2022-11-15T06:34:46.008Z,18.57
2022-11-15T06:35:47.852Z,17.21
2022-11-15T06:36:49.768Z,19.19
2022-11-15T06:37:51.603Z,19.19
2022-11-15T06:38:53.444Z,17.45
2022-11-15T06:39:55.263Z,16.90
2022-11-15T06:40:57.314Z,17.57
2022-11-15T06:41:59.158Z,19.17
2022-11-15T06:43:00.985Z,19.44
2022-11-15T06:44:02.808Z,20.03
2022-11-15T06:45:04.601Z,21.55
2022-11-15T06:46:07.968Z,19.98
2022-11-15T06:47:09.832Z,21.14
2022-11-15T06:48:11.674Z,24.13
2022-11-15T06:49:13.498Z,22.47
2022-11-15T06:50:15.623Z,27.21
2022-11-15T06:51:17.472Z,35.94
2022-11-15T06:52:19.307Z,31.73
2022-11-15T06:53:21.133Z,26.91
2022-11-15T06:54:23.019Z,24.79
2022-11-15T06:55:24.816Z,22.97
2022-11-15T06:56:26.777Z,22.24
2022-11-15T06:57:28.582Z,21.62
2022-11-15T06:58:30.503Z,21.83
2022-11-15T06:59:36.333Z,21.23
2022-11-15T07:00:36.197Z,22.69
2022-11-15T07:01:38.110Z,24.39
2022-11-15T07:02:39.979Z,24.62
2022-11-15T07:03:41.775Z,25.73
2022-11-15T07:04:43.579Z,23.77
2022-11-15T07:05:45.381Z,22.44
2022-11-15T07:06:47.363Z,22.47
2022-11-15T07:07:49.139Z,19.81
2022-11-15T07:08:50.966Z,16.70
2022-11-15T07:09:52.781Z,15.00
2022-11-15T07:10:54.714Z,13.55
2022-11-15T07:11:56.645Z,12.68
2022-11-15T07:12:58.473Z,12.15
2022-11-15T07:14:00.286Z,11.61
2022-11-15T07:15:02.115Z,9.84
2022-11-15T07:16:04.016Z,9.91
2022-11-15T07:17:05.909Z,9.51
2022-11-15T07:18:07.731Z,9.50
2022-11-15T07:19:09.553Z,11.86
2022-11-15T07:20:12.190Z,13.70
2022-11-15T07:21:14.020Z,14.85
2022-11-15T07:22:15.884Z,17.25
2022-11-15T07:23:17.752Z,20.01
2022-11-15T07:24:19.788Z,21.09
2022-11-15T07:25:21.629Z,20.30
2022-11-15T07:26:23.453Z,18.56
2022-11-15T07:27:25.486Z,17.04
2022-11-15T07:28:27.497Z,15.23
2022-11-15T07:29:29.718Z,13.91
2022-11-15T07:30:31.607Z,12.90
2022-11-15T07:31:33.426Z,13.88
2022-11-15T07:32:35.293Z,17.33
2022-11-15T07:33:37.100Z,13.89
2022-11-15T07:34:39.090Z,13.21
2022-11-15T07:35:40.934Z,13.35
2022-11-15T07:36:43.000Z,13.54
2022-11-15T07:37:44.872Z,13.45
2022-11-15T07:38:46.708Z,13.59
2022-11-15T07:39:48.592Z,12.71
2022-11-15T07:40:50.529Z,11.25
2022-11-15T07:41:52.355Z,11.20
2022-11-15T07:42:54.263Z,10.19
2022-11-15T07:43:56.048Z,10.76
2022-11-15T07:44:57.843Z,11.12
2022-11-15T07:45:59.895Z,10.58
2022-11-15T07:47:01.783Z,10.32
2022-11-15T07:48:03.636Z,9.91
2022-11-15T07:49:05.466Z,10.37
2022-11-15T07:50:07.710Z,8.10
2022-11-15T07:52:30.712Z,9.34
2022-11-15T07:53:32.875Z,9.04
2022-11-15T07:54:34.934Z,8.57
2022-11-15T07:55:36.725Z,8.05
2022-11-15T07:56:38.641Z,8.43
2022-11-15T07:57:40.443Z,8.85
2022-11-15T07:58:42.452Z,8.92
2022-11-15T07:59:44.270Z,8.41
2022-11-15T08:00:46.198Z,8.18
2022-11-15T08:01:48.140Z,7.40
2022-11-15T08:02:50.217Z,7.81
2022-11-15T08:03:52.157Z,7.71
2022-11-15T08:04:53.986Z,6.61
2022-11-15T08:05:55.788Z,6.85
2022-11-15T08:06:57.743Z,7.01
2022-11-15T08:07:59.616Z,7.43
2022-11-15T08:09:01.471Z,7.36
2022-11-15T08:10:03.396Z,6.89
2022-11-15T08:11:05.212Z,7.41
2022-11-15T08:12:07.036Z,6.61
2022-11-15T08:13:08.900Z,6.23
2022-11-15T08:14:10.823Z,6.06
2022-11-15T08:15:12.649Z,6.82
2022-11-15T08:16:14.689Z,6.46
2022-11-15T08:17:16.523Z,6.14
2022-11-15T08:18:18.321Z,6.76
2022-11-15T08:19:20.180Z,6.53
2022-11-15T08:20:22.189Z,5.67
2022-11-15T08:21:24.018Z,5.79
2022-11-15T08:22:25.846Z,5.76
2022-11-15T08:23:27.675Z,6.75
2022-11-15T08:24:29.557Z,7.93
2022-11-15T08:25:31.358Z,7.16
2022-11-15T08:26:33.265Z,6.69
2022-11-15T08:27:35.138Z,6.23
2022-11-15T08:28:37.017Z,6.04
2022-11-15T08:29:38.863Z,6.60
2022-11-15T08:30:40.790Z,6.41
2022-11-15T08:31:42.614Z,7.00
2022-11-15T08:32:44.433Z,6.53
2022-11-15T08:33:46.243Z,6.60
2022-11-15T08:34:48.309Z,6.63
2022-11-15T08:35:50.146Z,6.81
2022-11-15T08:36:52.063Z,7.24
2022-11-15T08:37:53.908Z,7.06
2022-11-15T08:38:55.720Z,6.60
2022-11-15T08:39:57.569Z,7.06
2022-11-15T08:40:59.519Z,6.86
2022-11-15T08:42:01.541Z,6.50
2022-11-15T08:43:03.362Z,7.11
2022-11-15T08:44:05.180Z,7.11
2022-11-15T08:45:07.059Z,6.50
2022-11-15T08:46:09.274Z,6.50
2022-11-15T08:47:11.097Z,7.80
2022-11-15T08:48:12.915Z,7.35
2022-11-15T08:49:14.719Z,7.61
2022-11-15T08:50:16.683Z,8.13
2022-11-15T08:51:18.520Z,7.75
2022-11-15T08:52:20.357Z,7.73
2022-11-15T08:53:22.159Z,6.61
2022-11-15T08:54:23.991Z,7.53
2022-11-15T08:55:25.874Z,7.91
2022-11-15T08:56:27.656Z,7.39
2022-11-15T08:57:29.477Z,7.75
2022-11-15T08:58:31.584Z,7.49
2022-11-15T08:59:33.830Z,6.96
2022-11-15T09:00:35.834Z,6.63
2022-11-15T09:01:37.698Z,6.36
2022-11-15T09:02:39.658Z,5.30
2022-11-15T09:03:41.483Z,6.14
2022-11-15T09:04:43.315Z,6.60
2022-11-15T09:05:45.158Z,6.27
2022-11-15T09:06:47.125Z,6.69
2022-11-15T09:07:48.898Z,5.52
2022-11-15T09:08:50.730Z,5.21
2022-11-15T09:09:52.552Z,4.81
2022-11-15T09:10:54.504Z,4.71
2022-11-15T09:12:01.144Z,4.93
2022-11-15T09:12:59.966Z,5.21
2022-11-15T09:14:01.773Z,4.86
2022-11-15T09:15:03.584Z,4.91
2022-11-15T09:16:05.583Z,4.96
2022-11-15T09:17:07.412Z,5.17
2022-11-15T09:18:09.224Z,7.98
2022-11-15T09:19:12.037Z,8.39
2022-11-15T09:20:14.874Z,6.44
2022-11-15T09:21:16.748Z,7.24
2022-11-15T09:22:18.590Z,5.35
2022-11-15T09:23:20.413Z,4.74
2022-11-15T09:24:22.230Z,4.69
2022-11-15T09:25:24.042Z,5.46
2022-11-15T09:26:26.030Z,6.74
2022-11-15T09:27:27.853Z,5.49
2022-11-15T09:28:30.093Z,4.31
2022-11-15T09:29:32.087Z,5.12
2022-11-15T09:30:34.141Z,5.25
2022-11-15T09:31:36.014Z,5.03
2022-11-15T09:32:39.341Z,5.13
2022-11-15T09:33:41.504Z,5.54
2022-11-15T09:34:43.302Z,5.37
2022-11-15T09:35:45.139Z,4.66
2022-11-15T09:36:47.389Z,4.30
2022-11-15T09:37:54.943Z,4.33
2022-11-15T09:38:52.809Z,4.28
2022-11-15T09:39:54.638Z,4.60
2022-11-15T09:40:56.557Z,4.07
2022-11-15T09:41:58.432Z,3.99
2022-11-15T09:43:00.220Z,4.11
2022-11-15T09:44:02.031Z,4.15
2022-11-15T09:45:03.842Z,3.85
2022-11-15T09:46:05.775Z,4.09
2022-11-15T09:47:07.655Z,3.79
2022-11-15T09:48:09.473Z,3.88
2022-11-15T09:49:11.293Z,3.76
2022-11-15T09:50:13.299Z,3.92
2022-11-15T09:51:15.100Z,3.26
2022-11-15T09:52:16.954Z,3.53
2022-11-15T09:53:28.716Z,3.25
2022-11-15T09:55:26.052Z,3.50
2022-11-15T09:56:28.274Z,3.77
2022-11-15T09:57:30.147Z,3.96
2022-11-15T09:58:32.200Z,3.65
2022-11-15T09:59:34.217Z,3.40
2022-11-15T10:00:51.491Z,3.31
2022-11-15T10:01:40.125Z,3.58
2022-11-15T10:02:42.046Z,3.11
2022-11-15T10:03:43.865Z,4.15
2022-11-15T10:04:45.666Z,4.29
2022-11-15T10:05:47.479Z,4.21
2022-11-15T10:06:49.326Z,4.61
2022-11-15T10:07:51.250Z,4.87
2022-11-15T10:08:53.076Z,3.76
2022-11-15T10:09:54.893Z,4.41
2022-11-15T10:11:15.922Z,5.31
2022-11-15T10:12:00.327Z,4.91
2022-11-15T10:13:02.196Z,4.43
2022-11-15T10:14:04.019Z,3.84
2022-11-15T10:15:05.844Z,3.24
2022-11-15T10:16:08.058Z,3.20
2022-11-15T10:17:09.862Z,3.18
2022-11-15T10:18:11.787Z,4.53
2022-11-15T10:19:13.594Z,6.37
2022-11-15T10:20:15.710Z,4.67
2022-11-15T10:21:17.527Z,5.41
2022-11-15T10:22:19.337Z,5.51
2022-11-15T10:23:21.200Z,5.63
2022-11-15T10:24:23.013Z,4.84
2022-11-15T10:25:24.821Z,4.16
2022-11-15T10:26:26.736Z,3.72
2022-11-15T10:27:28.556Z,3.37
2022-11-15T10:28:30.908Z,3.61
2022-11-15T10:29:33.180Z,3.01
2022-11-15T10:30:35.090Z,3.81
2022-11-15T10:31:36.901Z,3.47
2022-11-15T10:32:38.724Z,3.41
2022-11-15T10:33:40.619Z,3.09
2022-11-15T10:34:42.624Z,3.33
2022-11-15T10:35:44.452Z,3.00
2022-11-15T10:36:50.146Z,3.51
2022-11-15T10:37:49.989Z,3.07
2022-11-15T10:38:51.898Z,2.98
2022-11-15T10:39:53.654Z,2.70
2022-11-15T10:40:55.578Z,3.15
2022-11-15T10:41:57.386Z,3.34
2022-11-15T10:42:59.199Z,10.85
2022-11-15T10:44:01.054Z,8.42
2022-11-15T10:45:02.869Z,7.87
2022-11-15T10:46:24.581Z,12.40
2022-11-15T10:47:08.526Z,6.00
2022-11-15T10:48:10.356Z,5.27
2022-11-15T10:49:12.235Z,3.39
2022-11-15T10:50:15.100Z,2.84
2022-11-15T10:51:16.924Z,3.85
2022-11-15T10:52:18.728Z,3.97
2022-11-15T10:53:20.558Z,3.48
2022-11-15T10:54:22.415Z,2.83
2022-11-15T10:55:24.226Z,2.91
2022-11-15T10:56:26.130Z,2.50
2022-11-15T10:57:27.952Z,2.33
2022-11-15T10:58:30.105Z,2.40
2022-11-15T10:59:37.657Z,2.37
2022-11-15T11:00:35.903Z,2.05
2022-11-15T11:01:37.752Z,2.28
2022-11-15T11:02:39.588Z,2.39
2022-11-15T11:03:41.420Z,2.39
2022-11-15T11:04:43.304Z,2.41
2022-11-15T11:05:45.127Z,2.31
2022-11-15T11:06:47.012Z,2.37
2022-11-15T11:07:48.916Z,2.00
2022-11-15T11:08:50.721Z,2.34
2022-11-15T11:09:52.570Z,2.51
2022-11-15T11:11:00.266Z,2.59
2022-11-15T11:11:58.492Z,3.01
2022-11-15T11:13:00.318Z,2.74
2022-11-15T11:14:02.151Z,2.95
2022-11-15T11:15:04.022Z,2.86
2022-11-15T11:16:06.066Z,2.87
2022-11-15T11:17:07.895Z,2.54
2022-11-15T11:18:09.721Z,2.59
2022-11-15T11:19:11.517Z,2.97
2022-11-15T11:20:14.278Z,2.62
2022-11-15T11:21:16.081Z,2.41
2022-11-15T11:22:17.908Z,1.93
2022-11-15T11:23:19.754Z,1.88
2022-11-15T11:24:21.553Z,2.28
2022-11-15T11:25:23.471Z,2.07
2022-11-15T11:26:25.231Z,2.67
2022-11-15T11:27:27.066Z,3.08
2022-11-15T11:28:29.148Z,2.55
2022-11-15T11:29:31.167Z,2.11
2022-11-15T11:30:33.118Z,3.00
2022-11-15T11:31:34.921Z,2.99
2022-11-15T11:32:36.724Z,2.61
2022-11-15T11:33:38.589Z,2.90
2022-11-15T11:34:40.398Z,3.57
2022-11-15T11:35:42.296Z,3.26
2022-11-15T11:36:44.241Z,2.54
2022-11-15T11:37:46.076Z,2.50
2022-11-15T11:38:47.916Z,2.35
2022-11-15T11:39:49.713Z,1.65
2022-11-15T11:40:51.652Z,2.40
2022-11-15T11:41:53.470Z,1.80
2022-11-15T11:42:55.278Z,2.16
2022-11-15T11:43:57.083Z,1.94
2022-11-15T11:44:58.915Z,2.32
2022-11-15T11:46:00.794Z,2.21
2022-11-15T11:47:02.624Z,2.09
2022-11-15T11:48:04.438Z,2.47
2022-11-15T11:49:06.272Z,2.20
2022-11-15T11:50:08.300Z,7.95
2022-11-15T11:51:10.234Z,11.01
2022-11-15T11:52:12.033Z,7.81
2022-11-15T11:53:13.823Z,4.77
2022-11-15T11:54:16.138Z,3.32
2022-11-15T11:55:17.938Z,3.61
2022-11-15T11:56:19.810Z,2.80
2022-11-15T11:57:21.660Z,2.27
2022-11-15T11:58:23.443Z,2.43
2022-11-15T11:59:25.272Z,2.59
2022-11-15T12:00:27.207Z,2.66
2022-11-15T12:01:30.325Z,2.72
2022-11-15T12:02:32.249Z,2.21
2022-11-15T12:03:34.292Z,2.08
2022-11-15T12:04:36.110Z,2.37
2022-11-15T12:05:37.926Z,2.60
2022-11-15T12:06:39.941Z,3.03
2022-11-15T12:07:41.778Z,5.43
2022-11-15T12:08:43.578Z,6.38
2022-11-15T12:09:45.370Z,10.21
2022-11-15T12:10:47.317Z,11.83
2022-11-15T12:11:49.282Z,11.37
2022-11-15T12:12:51.096Z,11.66
2022-11-15T12:13:52.921Z,7.56
2022-11-15T12:14:54.751Z,6.39
2022-11-15T12:15:56.589Z,5.33
2022-11-15T12:16:58.658Z,5.63
2022-11-15T12:18:00.450Z,4.30
2022-11-15T12:19:02.265Z,3.23
2022-11-15T12:20:04.219Z,3.20
2022-11-15T12:21:06.022Z,2.97
2022-11-15T12:22:07.882Z,3.15
2022-11-15T12:23:09.902Z,3.29
2022-11-15T12:24:11.692Z,3.76
2022-11-15T12:25:13.535Z,3.19
2022-11-15T12:26:15.477Z,3.40
2022-11-15T12:27:20.655Z,3.31
2022-11-15T12:28:21.027Z,2.89
2022-11-15T12:29:22.829Z,2.87
2022-11-15T12:30:24.640Z,2.97
2022-11-15T12:31:26.441Z,3.03
2022-11-15T12:32:28.319Z,4.88
2022-11-15T12:33:30.146Z,5.30
2022-11-15T12:34:31.972Z,6.51
2022-11-15T12:35:33.787Z,7.92
2022-11-15T12:36:35.731Z,6.35
2022-11-15T12:37:37.684Z,5.99
2022-11-15T12:38:39.515Z,5.59
2022-11-15T12:39:41.357Z,5.20
2022-11-15T12:40:43.277Z,3.95
2022-11-15T12:41:45.128Z,3.65
2022-11-15T12:42:46.949Z,4.08
2022-11-15T12:43:48.769Z,3.63
2022-11-15T12:44:50.605Z,3.66
2022-11-15T12:45:52.441Z,3.59
2022-11-15T12:46:54.347Z,3.76
2022-11-15T12:47:56.318Z,3.81
2022-11-15T12:48:58.111Z,4.13
2022-11-15T12:49:59.937Z,3.69
2022-11-15T12:51:01.742Z,4.12
2022-11-15T12:52:03.629Z,4.87
2022-11-15T12:53:05.579Z,4.77
2022-11-15T12:54:07.386Z,5.02
2022-11-15T12:55:09.501Z,5.92
2022-11-15T12:56:13.138Z,5.59
2022-11-15T12:57:14.971Z,5.99
2022-11-15T12:58:16.853Z,7.77
2022-11-15T12:59:18.668Z,11.05
2022-11-15T13:00:25.113Z,11.82
2022-11-15T13:01:25.878Z,13.76
2022-11-15T13:02:27.819Z,13.31
2022-11-15T13:03:29.685Z,12.03
2022-11-15T13:04:31.848Z,15.90
2022-11-15T13:05:33.676Z,20.30
2022-11-15T13:06:35.674Z,19.59
2022-11-15T13:07:37.563Z,22.67
2022-11-15T13:08:39.558Z,22.77
2022-11-15T13:09:41.695Z,29.19
2022-11-15T13:10:43.631Z,28.21
2022-11-15T13:11:45.535Z,24.53
2022-11-15T13:12:47.385Z,17.59
2022-11-15T13:13:49.226Z,21.08
2022-11-15T13:14:51.054Z,24.11
2022-11-15T13:15:52.884Z,34.53
2022-11-15T13:16:54.857Z,40.19
2022-11-15T13:17:56.651Z,36.23
2022-11-15T13:18:58.549Z,32.43
2022-11-15T13:20:00.429Z,31.31
2022-11-15T13:21:03.062Z,30.11
2022-11-15T13:22:05.079Z,27.27
2022-11-15T13:23:06.902Z,21.94
2022-11-15T13:24:08.827Z,19.13
2022-11-15T13:25:10.765Z,14.40
2022-11-15T13:26:14.262Z,10.89
2022-11-15T13:27:16.185Z,10.36
2022-11-15T13:28:18.005Z,11.15
2022-11-15T13:29:19.865Z,12.19
2022-11-15T13:30:21.863Z,11.52
2022-11-15T13:31:23.674Z,14.43